sensor_id;sensor_type;location;lat;lon;timestamp;pressure;altitude;pressure_sealevel;temperature;humidity
24302;BME280;12421;49.732;20.078;2023-03-20T00:08:42;96881.63;;;1.29;76.01
24302;BME280;12421;49.732;20.078;2023-03-20T00:18:49;96878.56;;;1.31;76.14
24302;BME280;12421;49.732;20.078;2023-03-20T00:28:53;96880.61;;;1.44;76.41
24302;BME280;12421;49.732;20.078;2023-03-20T00:38:56;96881.75;;;1.56;76.10
24302;BME280;12421;49.732;20.078;2023-03-20T00:48:59;96876.88;;;1.63;76.12
24302;BME280;12421;49.732;20.078;2023-03-20T00:59:04;96877.72;;;1.69;76.11
24302;BME280;12421;49.732;20.078;2023-03-20T01:09:07;96869.82;;;1.72;76.10
24302;BME280;12421;49.732;20.078;2023-03-20T01:19:12;96865.86;;;1.65;76.47
24302;BME280;12421;49.732;20.078;2023-03-20T01:39:22;96869.55;;;1.60;76.57
24302;BME280;12421;49.732;20.078;2023-03-20T01:50:11;96872.21;;;1.47;76.91
24302;BME280;12421;49.732;20.078;2023-03-20T02:00:22;96872.02;;;1.32;76.85
24302;BME280;12421;49.732;20.078;2023-03-20T02:10:26;96872.23;;;1.20;77.13
24302;BME280;12421;49.732;20.078;2023-03-20T02:21:04;96870.88;;;1.06;76.91
24302;BME280;12421;49.732;20.078;2023-03-20T02:51:56;96870.46;;;0.83;77.76
24302;BME280;12421;49.732;20.078;2023-03-20T03:02:08;96865.21;;;0.80;78.21
24302;BME280;12421;49.732;20.078;2023-03-20T03:12:22;96863.48;;;0.74;78.19
24302;BME280;12421;49.732;20.078;2023-03-20T03:22:26;96859.89;;;0.63;78.38
24302;BME280;12421;49.732;20.078;2023-03-20T03:32:33;96859.09;;;0.57;78.69
24302;BME280;12421;49.732;20.078;2023-03-20T03:42:43;96853.59;;;0.59;78.98
24302;BME280;12421;49.732;20.078;2023-03-20T03:52:52;96857.83;;;0.56;78.84
24302;BME280;12421;49.732;20.078;2023-03-20T04:02:58;96858.77;;;0.59;78.72
24302;BME280;12421;49.732;20.078;2023-03-20T04:13:04;96858.81;;;0.54;78.84
24302;BME280;12421;49.732;20.078;2023-03-20T04:23:08;96858.40;;;0.51;78.56
24302;BME280;12421;49.732;20.078;2023-03-20T04:33:11;96855.30;;;0.45;78.89
24302;BME280;12421;49.732;20.078;2023-03-20T04:43:41;96864.30;;;0.46;79.41
24302;BME280;12421;49.732;20.078;2023-03-20T04:53:45;96863.55;;;0.57;79.70
24302;BME280;12421;49.732;20.078;2023-03-20T05:03:50;96861.09;;;0.68;79.63
24302;BME280;12421;49.732;20.078;2023-03-20T05:13:54;96868.20;;;0.82;79.82
24302;BME280;12421;49.732;20.078;2023-03-20T05:24:13;96866.55;;;1.06;79.50
24302;BME280;12421;49.732;20.078;2023-03-20T05:34:28;96863.42;;;1.19;79.01
24302;BME280;12421;49.732;20.078;2023-03-20T05:44:51;96866.08;;;1.37;79.25
24302;BME280;12421;49.732;20.078;2023-03-20T05:55:07;96877.50;;;1.60;79.52
24302;BME280;12421;49.732;20.078;2023-03-20T06:05:27;96873.02;;;1.99;78.94
24302;BME280;12421;49.732;20.078;2023-03-20T06:15:31;96869.19;;;2.41;78.66
24302;BME280;12421;49.732;20.078;2023-03-20T06:25:44;96878.98;;;2.82;78.01
24302;BME280;12421;49.732;20.078;2023-03-20T06:35:48;96878.94;;;3.19;77.17
24302;BME280;12421;49.732;20.078;2023-03-20T06:45:52;96881.06;;;3.65;76.79
24302;BME280;12421;49.732;20.078;2023-03-20T06:55:58;96890.05;;;4.38;76.93
24302;BME280;12421;49.732;20.078;2023-03-20T07:06:01;96893.33;;;5.32;74.70
24302;BME280;12421;49.732;20.078;2023-03-20T07:16:06;96891.90;;;6.25;72.54
24302;BME280;12421;49.732;20.078;2023-03-20T07:26:13;96884.55;;;7.27;69.91
24302;BME280;12421;49.732;20.078;2023-03-20T07:36:18;96879.98;;;8.13;68.78
24302;BME280;12421;49.732;20.078;2023-03-20T07:46:21;96872.05;;;9.14;66.42
24302;BME280;12421;49.732;20.078;2023-03-20T07:56:25;96867.34;;;10.00;64.98
24302;BME280;12421;49.732;20.078;2023-03-20T08:06:29;96870.60;;;10.71;62.83
24302;BME280;12421;49.732;20.078;2023-03-20T08:16:32;96864.09;;;11.69;59.95
24302;BME280;12421;49.732;20.078;2023-03-20T08:26:36;96862.23;;;12.63;59.12
24302;BME280;12421;49.732;20.078;2023-03-20T08:36:40;96848.40;;;13.25;57.21
24302;BME280;12421;49.732;20.078;2023-03-20T08:46:43;96846.04;;;13.29;56.20
24302;BME280;12421;49.732;20.078;2023-03-20T08:56:48;96843.42;;;13.35;55.37
24302;BME280;12421;49.732;20.078;2023-03-20T09:06:51;96848.90;;;13.71;53.84
24302;BME280;12421;49.732;20.078;2023-03-20T09:16:54;96854.67;;;14.08;52.02
24302;BME280;12421;49.732;20.078;2023-03-20T09:26:58;96844.67;;;14.40;50.43
24302;BME280;12421;49.732;20.078;2023-03-20T09:37:05;96838.88;;;14.51;48.95
24302;BME280;12421;49.732;20.078;2023-03-20T09:57:27;96832.19;;;15.28;48.09
24302;BME280;12421;49.732;20.078;2023-03-20T10:07:30;96830.47;;;15.82;47.14
24302;BME280;12421;49.732;20.078;2023-03-20T10:17:52;96821.65;;;16.12;45.47
24302;BME280;12421;49.732;20.078;2023-03-20T10:28:03;96818.57;;;16.55;44.47
24302;BME280;12421;49.732;20.078;2023-03-20T10:58:58;96816.00;;;16.77;43.55
24302;BME280;12421;49.732;20.078;2023-03-20T11:09:15;96810.39;;;16.51;44.00
24302;BME280;12421;49.732;20.078;2023-03-20T11:19:23;96797.13;;;16.73;45.05
24302;BME280;12421;49.732;20.078;2023-03-20T11:29:30;96794.43;;;17.16;43.72
24302;BME280;12421;49.732;20.078;2023-03-20T11:50:04;96791.31;;;16.73;44.84
24302;BME280;12421;49.732;20.078;2023-03-20T12:00:22;96785.32;;;16.13;45.43
24302;BME280;12421;49.732;20.078;2023-03-20T12:10:31;96780.77;;;15.86;46.09
24302;BME280;12421;49.732;20.078;2023-03-20T12:20:42;96781.02;;;16.04;47.20
24302;BME280;12421;49.732;20.078;2023-03-20T12:31:08;96777.19;;;16.37;47.10
24302;BME280;12421;49.732;20.078;2023-03-20T12:41:27;96776.45;;;16.77;46.60
24302;BME280;12421;49.732;20.078;2023-03-20T12:52:05;96775.59;;;16.95;46.67
24302;BME280;12421;49.732;20.078;2023-03-20T13:02:23;96769.67;;;17.01;46.87
24302;BME280;12421;49.732;20.078;2023-03-20T13:12:36;96763.10;;;16.87;46.96
24302;BME280;12421;49.732;20.078;2023-03-20T13:22:57;96763.85;;;16.68;47.68
24302;BME280;12421;49.732;20.078;2023-03-20T13:43:27;96757.52;;;16.12;49.55
24302;BME280;12421;49.732;20.078;2023-03-20T14:03:51;96761.12;;;15.60;51.60
24302;BME280;12421;49.732;20.078;2023-03-20T14:14:02;96759.78;;;15.19;52.51
24302;BME280;12421;49.732;20.078;2023-03-20T14:24:12;96765.05;;;14.80;53.43
24302;BME280;12421;49.732;20.078;2023-03-20T14:34:21;96765.42;;;14.38;54.76
24302;BME280;12421;49.732;20.078;2023-03-20T14:55:33;96762.02;;;14.00;56.56
24302;BME280;12421;49.732;20.078;2023-03-20T15:05:38;96758.47;;;13.95;56.94
24302;BME280;12421;49.732;20.078;2023-03-20T15:15:57;96754.89;;;13.84;57.32
24302;BME280;12421;49.732;20.078;2023-03-20T15:26:02;96753.15;;;13.69;57.61
24302;BME280;12421;49.732;20.078;2023-03-20T15:36:10;96748.79;;;13.54;58.02
24302;BME280;12421;49.732;20.078;2023-03-20T15:46:16;96749.48;;;13.40;58.59
24302;BME280;12421;49.732;20.078;2023-03-20T15:56:25;96752.73;;;13.15;58.83
24302;BME280;12421;49.732;20.078;2023-03-20T16:06:29;96753.85;;;12.82;59.41
24302;BME280;12421;49.732;20.078;2023-03-20T16:16:33;96770.21;;;12.50;60.17
24302;BME280;12421;49.732;20.078;2023-03-20T16:26:43;96772.82;;;12.26;60.69
24302;BME280;12421;49.732;20.078;2023-03-20T16:36:51;96777.34;;;12.02;61.60
24302;BME280;12421;49.732;20.078;2023-03-20T16:47:15;96779.48;;;11.82;62.27
24302;BME280;12421;49.732;20.078;2023-03-20T16:57:22;96774.71;;;11.63;62.84
24302;BME280;12421;49.732;20.078;2023-03-20T17:07:26;96786.48;;;11.52;63.46
24302;BME280;12421;49.732;20.078;2023-03-20T17:17:30;96793.61;;;11.37;63.94
24302;BME280;12421;49.732;20.078;2023-03-20T17:27:34;96798.25;;;11.09;64.61
24302;BME280;12421;49.732;20.078;2023-03-20T17:37:39;96796.13;;;10.86;65.21
24302;BME280;12421;49.732;20.078;2023-03-20T17:47:43;96795.84;;;10.68;65.85
24302;BME280;12421;49.732;20.078;2023-03-20T17:57:47;96795.48;;;10.42;66.54
24302;BME280;12421;49.732;20.078;2023-03-20T18:07:51;96782.78;;;10.19;67.35
24302;BME280;12421;49.732;20.078;2023-03-20T18:17:54;96778.61;;;10.00;68.01
24302;BME280;12421;49.732;20.078;2023-03-20T18:27:59;96781.17;;;9.89;68.70
24302;BME280;12421;49.732;20.078;2023-03-20T18:38:05;96779.67;;;9.80;69.17
24302;BME280;12421;49.732;20.078;2023-03-20T18:48:11;96786.00;;;9.62;69.88
24302;BME280;12421;49.732;20.078;2023-03-20T18:58:22;96793.27;;;9.32;70.39
24302;BME280;12421;49.732;20.078;2023-03-20T19:08:26;96802.38;;;9.09;71.33
24302;BME280;12421;49.732;20.078;2023-03-20T19:18:30;96806.15;;;8.97;71.78
24302;BME280;12421;49.732;20.078;2023-03-20T19:28:33;96808.55;;;8.76;72.05
24302;BME280;12421;49.732;20.078;2023-03-20T19:38:42;96806.98;;;8.40;72.31
24302;BME280;12421;49.732;20.078;2023-03-20T19:48:46;96814.42;;;8.12;72.53
24302;BME280;12421;49.732;20.078;2023-03-20T19:58:53;96818.69;;;7.84;73.52
24302;BME280;12421;49.732;20.078;2023-03-20T20:08:56;96818.02;;;7.63;73.95
24302;BME280;12421;49.732;20.078;2023-03-20T20:19:00;96816.99;;;7.48;74.10
24302;BME280;12421;49.732;20.078;2023-03-20T20:29:03;96823.81;;;7.44;74.52
24302;BME280;12421;49.732;20.078;2023-03-20T20:39:06;96811.40;;;7.43;75.09
24302;BME280;12421;49.732;20.078;2023-03-20T20:49:10;96800.77;;;7.39;75.37
24302;BME280;12421;49.732;20.078;2023-03-20T20:59:22;96802.52;;;7.30;75.83
24302;BME280;12421;49.732;20.078;2023-03-20T21:09:25;96803.04;;;7.16;76.28
24302;BME280;12421;49.732;20.078;2023-03-20T21:19:32;96798.15;;;7.14;76.74
24302;BME280;12421;49.732;20.078;2023-03-20T21:29:37;96804.25;;;7.24;76.59
24302;BME280;12421;49.732;20.078;2023-03-20T21:39:40;96805.30;;;7.32;76.58
24302;BME280;12421;49.732;20.078;2023-03-20T21:49:43;96808.98;;;7.20;77.01
24302;BME280;12421;49.732;20.078;2023-03-20T22:00:07;96808.11;;;7.18;77.72
24302;BME280;12421;49.732;20.078;2023-03-20T22:10:31;96803.73;;;7.12;78.34
24302;BME280;12421;49.732;20.078;2023-03-20T22:21:00;96806.53;;;7.18;78.63
24302;BME280;12421;49.732;20.078;2023-03-20T22:31:23;96804.60;;;7.38;78.81
24302;BME280;12421;49.732;20.078;2023-03-20T22:41:47;96809.31;;;7.56;78.59
24302;BME280;12421;49.732;20.078;2023-03-20T22:52:10;96815.95;;;7.47;78.31
24302;BME280;12421;49.732;20.078;2023-03-20T23:02:31;96812.81;;;7.41;79.20
24302;BME280;12421;49.732;20.078;2023-03-20T23:12:36;96794.13;;;7.36;80.09
24302;BME280;12421;49.732;20.078;2023-03-20T23:22:39;96795.86;;;7.40;81.05
24302;BME280;12421;49.732;20.078;2023-03-20T23:32:43;96790.10;;;7.49;81.96
24302;BME280;12421;49.732;20.078;2023-03-20T23:42:46;96784.81;;;7.74;82.21
24302;BME280;12421;49.732;20.078;2023-03-20T23:52:49;96788.58;;;7.97;81.93
